Time;durP1;ratioP1;P1;durP2;ratioP2;P2;SDS_P1;SDS_P2;PMS_P1;PMS_P2;Temp;Humidity;BMP_temperature;BMP_pressure;BME280_temperature;BME280_humidity;BME280_pressure;Samples;Min_cycle;Max_cycle;Signal;HPM_P1;HPM_P2
2022/05/30 00:02:25;;;;;;;2.90;1.85;;;;;;;8.00;66.07;96141.56;4921410;29;20493;-84
2022/05/30 00:04:52;;;;;;;3.28;1.92;;;;;;;7.98;66.31;96139.19;4921232;29;20095;-81
2022/05/30 00:07:21;;;;;;;3.40;1.65;;;;;;;7.97;66.12;96139.34;4920588;29;20055;-86
2022/05/30 00:09:49;;;;;;;4.97;1.73;;;;;;;7.97;65.72;96131.56;4921261;29;20052;-85
2022/05/30 00:12:17;;;;;;;2.17;1.98;;;;;;;7.94;65.51;96137.13;4920993;29;20052;-88
2022/05/30 00:14:45;;;;;;;3.42;1.73;;;;;;;7.89;65.79;96129.03;4920791;29;20055;-80
2022/05/30 00:17:13;;;;;;;4.82;1.80;;;;;;;7.85;66.14;96128.59;4920112;29;20116;-88
2022/05/30 00:19:40;;;;;;;3.08;2.03;;;;;;;7.80;66.04;96125.69;4919909;29;20052;-87
2022/05/30 00:22:11;;;;;;;5.25;2.25;;;;;;;7.74;66.48;96129.81;4920639;29;20056;-89
2022/05/30 00:24:40;;;;;;;3.13;2.50;;;;;;;7.69;66.08;96124.31;4920525;29;20576;-81
2022/05/30 00:27:07;;;;;;;2.42;2.03;;;;;;;7.63;66.17;96127.59;4919655;29;20063;-88
2022/05/30 00:29:35;;;;;;;4.53;2.20;;;;;;;7.59;66.50;96123.78;4919827;29;20058;-87
2022/05/30 00:32:03;;;;;;;3.33;2.15;;;;;;;7.58;67.11;96127.34;4920595;29;20060;-87
2022/05/30 00:34:31;;;;;;;4.03;2.03;;;;;;;7.56;66.81;96116.31;4920545;29;20048;-82
2022/05/30 00:37:00;;;;;;;6.07;1.80;;;;;;;7.51;66.64;96121.22;4919762;29;20056;-89
2022/05/30 00:39:27;;;;;;;3.22;1.70;;;;;;;7.46;67.02;96113.16;4919984;29;20048;-81
2022/05/30 00:42:08;;;;;;;3.50;1.90;;;;;;;7.41;67.40;96108.47;4919694;29;20056;-88
2022/05/30 00:44:36;;;;;;;4.30;1.83;;;;;;;7.37;67.31;96121.00;4920068;29;20048;-79
2022/05/30 00:47:04;;;;;;;2.88;1.98;;;;;;;7.35;67.25;96117.78;4919867;29;20062;-83
2022/05/30 00:49:32;;;;;;;2.05;1.85;;;;;;;7.34;67.22;96108.38;4919788;29;20048;-81
2022/05/30 00:52:02;;;;;;;3.80;2.00;;;;;;;7.35;67.26;96114.38;4919641;29;20048;-80
2022/05/30 00:54:35;;;;;;;2.95;1.90;;;;;;;7.34;67.44;96110.16;4919264;29;20269;-86
2022/05/30 00:57:20;;;;;;;2.08;1.88;;;;;;;7.35;67.54;96107.41;4919001;29;20054;-84
2022/05/30 00:59:52;;;;;;;2.80;1.80;;;;;;;7.35;66.97;96106.59;4919440;29;20416;-83
2022/05/30 01:02:20;;;;;;;2.28;1.90;;;;;;;7.37;67.33;96102.03;4919225;29;20059;-80
2022/05/30 01:07:34;;;;;;;2.28;1.90;;;;;;;7.35;67.31;96099.63;4923400;29;20064;-89
2022/05/30 01:10:04;;;;;;;5.88;1.90;;;;;;;7.29;67.08;96092.53;4924178;29;20052;-87
2022/05/30 01:12:38;;;;;;;3.05;1.70;;;;;;;7.26;68.33;96092.88;4923558;29;20078;-88
2022/05/30 01:15:10;;;;;;;2.85;1.88;;;;;;;7.26;67.68;96098.06;4923063;29;20063;-85
2022/05/30 01:17:49;;;;;;;2.50;1.90;;;;;;;7.25;67.93;96091.25;4922479;29;20120;-84
2022/05/30 01:20:28;;;;;;;3.75;2.08;;;;;;;7.19;67.55;96092.75;4923079;29;20048;-88
2022/05/30 01:23:44;;;;;;;2.03;1.85;;;;;;;7.18;67.93;96090.34;4922417;29;20048;-81
2022/05/30 01:26:31;;;;;;;2.65;1.90;;;;;;;7.14;67.95;96091.66;4921740;29;20052;-87
2022/05/30 01:29:05;;;;;;;4.28;2.00;;;;;;;7.13;67.81;96090.06;4922282;29;20054;-87
2022/05/30 01:31:33;;;;;;;2.95;1.67;;;;;;;7.15;67.95;96085.47;4921378;29;20432;-81
2022/05/30 01:34:01;;;;;;;4.70;2.20;;;;;;;7.18;67.58;96083.34;4921873;29;20062;-81
2022/05/30 01:36:31;;;;;;;4.05;1.90;;;;;;;7.18;67.72;96077.38;4921087;29;20063;-89
2022/05/30 01:38:59;;;;;;;5.88;2.30;;;;;;;7.15;67.80;96077.69;4921856;29;20052;-82
2022/05/30 01:41:27;;;;;;;4.50;1.90;;;;;;;7.10;67.68;96075.63;4920697;29;20055;-84
2022/05/30 01:43:54;;;;;;;7.78;2.95;;;;;;;7.04;68.07;96071.16;4921246;29;20081;-87
2022/05/30 01:46:26;;;;;;;2.67;2.33;;;;;;;7.00;68.18;96068.09;4919940;29;20401;-82
2022/05/30 01:48:54;;;;;;;2.53;2.10;;;;;;;6.99;68.18;96073.44;4920285;29;20150;-84
2022/05/30 01:51:22;;;;;;;2.30;2.03;;;;;;;7.00;68.21;96059.50;4920413;29;20054;-86
2022/05/30 01:53:51;;;;;;;3.00;1.75;;;;;;;7.03;68.37;96060.94;4919980;29;20144;-83
2022/05/30 01:56:18;;;;;;;3.25;1.88;;;;;;;7.13;68.95;96051.94;4919717;29;20052;-80
2022/05/30 01:58:47;;;;;;;3.53;2.22;;;;;;;7.20;67.93;96049.47;4919641;29;20060;-79
2022/05/30 02:01:18;;;;;;;3.28;1.88;;;;;;;7.23;67.98;96052.50;4919660;29;20056;-83
2022/05/30 02:03:49;;;;;;;3.28;1.83;;;;;;;7.27;67.71;96052.16;4919821;29;20060;-90
2022/05/30 02:06:17;;;;;;;2.00;1.50;;;;;;;7.32;68.44;96050.66;4918063;29;20079;-83
2022/05/30 02:08:45;;;;;;;2.47;1.95;;;;;;;7.35;68.02;96049.53;4918063;29;20478;-90
2022/05/30 02:11:13;;;;;;;3.53;2.33;;;;;;;7.33;68.01;96054.06;4917768;29;20531;-89
2022/05/30 02:13:41;;;;;;;3.03;1.83;;;;;;;7.36;68.45;96049.31;4917585;29;20063;-89
2022/05/30 02:18:58;;;;;;;5.18;2.58;;;;;;;7.53;68.18;96041.41;4917655;29;20461;-87
2022/05/30 02:21:27;;;;;;;5.00;2.33;;;;;;;7.57;68.24;96043.47;4918252;29;20055;-88
2022/05/30 02:23:54;;;;;;;3.63;2.05;;;;;;;7.65;68.24;96047.78;4916389;29;20064;-87
2022/05/30 02:26:22;;;;;;;4.25;2.35;;;;;;;7.64;67.33;96043.56;4915699;29;20054;-86
2022/05/30 02:28:50;;;;;;;3.00;2.20;;;;;;;7.57;67.03;96047.88;4915690;29;20052;-84
2022/05/30 02:31:17;;;;;;;2.47;2.10;;;;;;;7.53;67.61;96047.41;4916566;29;20452;-85
2022/05/30 02:36:40;;;;;;;3.20;2.28;;;;;;;7.46;67.29;96041.31;4916614;29;20060;-83
2022/05/30 02:39:09;;;;;;;3.00;2.05;;;;;;;7.48;67.30;96041.94;4917707;29;20062;-89
2022/05/30 02:41:37;;;;;;;4.13;2.00;;;;;;;7.47;66.94;96036.91;4917636;29;20048;-87
2022/05/30 02:44:05;;;;;;;3.97;2.05;;;;;;;7.41;66.64;96028.88;4918556;29;20047;-89
2022/05/30 02:46:33;;;;;;;2.15;1.95;;;;;;;7.37;66.54;96032.00;4960327;23;20048;-80
2022/05/30 02:49:01;;;;;;;2.92;2.38;;;;;;;7.34;66.62;96027.94;4919286;29;20079;-80
2022/05/30 02:51:28;;;;;;;3.63;2.50;;;;;;;7.32;66.35;96036.88;4920019;29;20045;-82
2022/05/30 02:53:57;;;;;;;2.20;1.80;;;;;;;7.31;66.30;96024.91;4919840;29;20066;-80
2022/05/30 02:56:25;;;;;;;2.35;2.08;;;;;;;7.26;66.33;96025.44;4918983;29;20070;-80
2022/05/30 02:58:53;;;;;;;2.50;2.20;;;;;;;7.18;66.46;96023.69;4919825;29;20078;-81
2022/05/30 03:01:20;;;;;;;2.88;2.00;;;;;;;7.11;66.64;96025.38;4919869;29;20063;-80
2022/05/30 03:03:48;;;;;;;2.83;2.00;;;;;;;7.06;66.88;96032.06;4919292;29;20440;-80
2022/05/30 03:06:16;;;;;;;3.75;1.65;;;;;;;7.03;67.04;96029.81;4918519;29;20048;-80
2022/05/30 03:08:44;;;;;;;2.53;2.15;;;;;;;7.02;66.83;96034.22;4919039;29;20056;-81
2022/05/30 03:11:13;;;;;;;2.75;2.05;;;;;;;6.99;66.79;96029.34;4919534;29;20048;-80
2022/05/30 03:13:40;;;;;;;3.58;1.95;;;;;;;6.99;67.35;96030.16;4919202;29;20044;-81
2022/05/30 03:16:08;;;;;;;2.47;1.80;;;;;;;7.09;68.05;96039.50;4918373;29;20056;-80
2022/05/30 03:18:35;;;;;;;2.72;1.85;;;;;;;7.15;67.36;96036.19;4921452;29;20068;-80
2022/05/30 03:21:05;;;;;;;4.22;1.83;;;;;;;7.12;66.85;96037.34;4919236;29;20118;-80
2022/05/30 03:23:32;;;;;;;3.25;2.22;;;;;;;7.08;66.57;96043.06;4920546;29;20099;-80
2022/05/30 03:26:00;;;;;;;3.70;1.55;;;;;;;7.05;67.12;96046.00;4918275;29;20052;-80
2022/05/30 03:28:31;;;;;;;4.40;2.35;;;;;;;6.96;66.89;96040.06;4918830;29;20514;-81
2022/05/30 03:30:59;;;;;;;2.83;1.67;;;;;;;6.88;67.25;96048.69;4919030;29;20054;-81
2022/05/30 03:33:28;;;;;;;3.13;2.60;;;;;;;6.81;67.55;96048.59;4918836;29;20135;-81
2022/05/30 03:35:55;;;;;;;6.95;2.05;;;;;;;6.81;67.90;96053.75;4918243;29;20071;-80
2022/05/30 03:38:23;;;;;;;5.10;1.90;;;;;;;6.82;67.72;96059.75;4918847;29;20055;-80
2022/05/30 03:40:51;;;;;;;3.50;1.95;;;;;;;6.80;67.96;96056.56;4918482;29;20058;-81
2022/05/30 03:43:18;;;;;;;3.10;1.95;;;;;;;6.86;68.13;96066.22;4918597;29;20143;-80
2022/05/30 03:45:47;;;;;;;2.88;1.73;;;;;;;6.94;68.00;96063.56;4917733;29;20414;-80
2022/05/30 03:48:15;;;;;;;4.43;2.13;;;;;;;6.95;67.26;96060.03;4919436;29;20087;-80
2022/05/30 03:50:45;;;;;;;3.25;1.60;;;;;;;6.95;67.46;96064.38;4919182;29;20054;-80
2022/05/30 03:53:13;;;;;;;4.30;2.67;;;;;;;6.96;67.07;96066.81;4918472;29;20052;-81
2022/05/30 03:55:43;;;;;;;2.00;1.80;;;;;;;6.89;67.84;96065.88;4919996;29;20139;-81
2022/05/30 03:58:12;;;;;;;2.72;2.00;;;;;;;6.86;67.58;96068.81;4917729;29;20056;-80
2022/05/30 04:00:42;;;;;;;5.55;2.10;;;;;;;6.92;68.27;96075.91;4918012;29;20048;-81
2022/05/30 04:03:12;;;;;;;5.28;1.90;;;;;;;6.98;67.32;96074.41;4918144;29;20659;-81
2022/05/30 04:05:39;;;;;;;4.55;2.42;;;;;;;6.95;67.52;96075.59;4918176;29;20428;-82
2022/05/30 04:08:08;;;;;;;2.85;1.90;;;;;;;6.94;67.50;96083.53;4922129;29;20054;-80
2022/05/30 04:10:36;;;;;;;4.88;2.20;;;;;;;6.93;67.60;96080.13;4934999;29;20071;-80
2022/05/30 04:13:06;;;;;;;2.33;2.13;;;;;;;6.93;67.58;96074.94;4934804;29;20108;-80
2022/05/30 04:15:34;;;;;;;2.45;1.98;;;;;;;6.95;68.04;96085.13;4923900;29;20055;-80
2022/05/30 04:18:02;;;;;;;3.83;2.05;;;;;;;6.97;67.37;96085.75;4917741;29;20055;-80
2022/05/30 04:20:31;;;;;;;3.33;2.55;;;;;;;6.95;67.53;96083.34;4917949;29;20505;-80
2022/05/30 04:22:59;;;;;;;7.35;1.90;;;;;;;6.95;67.46;96082.53;4918212;29;20054;-80
2022/05/30 04:25:27;;;;;;;3.53;1.75;;;;;;;6.96;67.55;96081.56;4917844;29;20056;-80
2022/05/30 04:27:55;;;;;;;3.28;1.98;;;;;;;6.95;68.00;96091.13;4916914;29;20052;-80
2022/05/30 04:30:22;;;;;;;3.47;1.83;;;;;;;6.96;67.70;96087.56;4917889;29;20058;-80
2022/05/30 04:32:51;;;;;;;3.45;2.22;;;;;;;6.96;67.69;96094.53;4917697;29;20060;-81
2022/05/30 04:35:19;;;;;;;2.88;1.88;;;;;;;6.94;67.62;96088.72;4917489;29;20082;-81
2022/05/30 04:37:49;;;;;;;5.07;2.40;;;;;;;6.93;67.71;96092.25;4917111;29;20060;-81
2022/05/30 04:40:19;;;;;;;1.83;1.73;;;;;;;6.91;67.94;96094.22;4917668;29;20420;-81
2022/05/30 04:42:47;;;;;;;5.82;1.98;;;;;;;6.94;68.10;96094.69;4915935;29;20059;-81
2022/05/30 04:45:15;;;;;;;3.72;1.73;;;;;;;6.97;68.51;96096.94;4911600;29;20066;-81
2022/05/30 04:47:43;;;;;;;2.25;1.73;;;;;;;7.02;68.21;96096.44;4917163;29;20122;-80
2022/05/30 04:50:14;;;;;;;2.05;1.85;;;;;;;7.10;68.10;96104.16;4917453;29;20056;-80
2022/05/30 04:52:42;;;;;;;4.05;1.70;;;;;;;7.22;68.64;96104.56;4918284;29;20058;-80
2022/05/30 04:55:14;;;;;;;2.40;2.00;;;;;;;7.32;68.04;96106.94;4919719;29;20134;-80
2022/05/30 04:57:43;;;;;;;3.88;2.20;;;;;;;7.37;67.45;96100.25;4920080;29;20052;-80
2022/05/30 05:00:13;;;;;;;4.85;2.53;;;;;;;7.36;67.20;96097.81;4910459;29;20044;-80
2022/05/30 05:02:40;;;;;;;3.63;1.98;;;;;;;7.36;67.71;96101.22;4908625;29;20052;-75
2022/05/30 05:05:10;;;;;;;4.97;2.13;;;;;;;7.43;67.56;96102.16;4901630;29;20558;-75
2022/05/30 05:07:44;;;;;;;2.80;1.50;;;;;;;7.54;67.97;96102.72;4907387;29;20057;-77
2022/05/30 05:10:33;;;;;;;5.22;2.55;;;;;;;7.68;69.62;96104.53;4912666;29;20099;-77
2022/05/30 05:13:01;;;;;;;12.05;7.80;;;;;;;7.78;68.29;96106.88;4900529;29;20074;-78
2022/05/30 05:15:29;;;;;;;18.63;10.77;;;;;;;7.87;68.36;96103.25;4905654;29;20048;-77
2022/05/30 05:17:57;;;;;;;8.70;6.20;;;;;;;7.95;67.98;96107.53;4914121;29;20138;-80
2022/05/30 05:20:24;;;;;;;5.70;4.07;;;;;;;7.98;67.33;96101.97;4915101;29;20044;-79
2022/05/30 05:22:52;;;;;;;10.18;5.10;;;;;;;8.02;67.81;96103.25;4918989;29;20050;-80
2022/05/30 05:25:20;;;;;;;8.25;4.35;;;;;;;8.09;67.85;96104.16;4917721;29;20060;-80
2022/05/30 05:27:50;;;;;;;5.15;3.28;;;;;;;8.16;68.40;96112.84;4904271;29;20056;-80
2022/05/30 05:30:18;;;;;;;7.28;3.53;;;;;;;8.25;68.16;96098.78;4904275;29;20091;-79
2022/05/30 05:32:46;;;;;;;4.38;3.22;;;;;;;8.34;68.18;96102.09;4916549;29;20127;-80
2022/05/30 05:35:14;;;;;;;6.15;3.28;;;;;;;8.42;67.50;96111.66;4916693;29;20431;-79
2022/05/30 05:37:41;;;;;;;7.70;3.70;;;;;;;8.47;67.07;96106.69;4897768;29;20051;-80
2022/05/30 05:40:10;;;;;;;6.32;3.30;;;;;;;8.50;66.55;96110.72;4902502;29;20130;-79
2022/05/30 05:42:37;;;;;;;6.38;3.78;;;;;;;8.49;66.55;96104.72;4904261;29;20060;-80
2022/05/30 05:45:08;;;;;;;7.05;3.80;;;;;;;8.49;66.60;96112.53;4914487;29;20068;-80
2022/05/30 05:47:36;;;;;;;7.13;3.60;;;;;;;8.51;66.98;96110.56;4896727;29;20441;-79
2022/05/30 05:50:04;;;;;;;5.28;3.22;;;;;;;8.56;67.28;96105.63;4897750;29;20063;-80
2022/05/30 05:52:32;;;;;;;4.72;3.35;;;;;;;8.63;67.43;96111.69;4914959;29;20048;-80
2022/05/30 05:55:00;;;;;;;8.02;3.75;;;;;;;8.71;67.42;96107.41;4916283;29;20067;-79
2022/05/30 05:57:28;;;;;;;4.40;3.25;;;;;;;8.76;67.39;96105.03;4897068;29;20552;-79
2022/05/30 06:18:52;;;;;;;6.67;3.67;;;;;;;9.33;67.10;96117.25;5577576;23;20778;-80
2022/05/30 06:21:20;;;;;;;5.28;3.33;;;;;;;9.39;66.74;96119.13;4900898;29;20135;-81
2022/05/30 06:23:48;;;;;;;4.35;3.92;;;;;;;9.44;66.00;96121.97;4892518;29;20521;-81
2022/05/30 06:26:16;;;;;;;5.97;3.20;;;;;;;9.50;65.76;96117.81;4894424;29;20053;-81
2022/05/30 06:28:44;;;;;;;4.40;2.70;;;;;;;9.55;65.08;96122.47;4900811;29;20049;-81
2022/05/30 06:31:15;;;;;;;5.32;2.55;;;;;;;9.59;64.84;96126.31;4904367;29;20041;-80
2022/05/30 06:33:43;;;;;;;5.88;2.92;;;;;;;9.64;63.97;96124.78;4903028;29;20104;-81
2022/05/30 06:36:16;;;;;;;3.72;2.78;;;;;;;9.70;64.92;96125.81;4900184;29;20136;-81
2022/05/30 06:38:44;;;;;;;5.10;2.80;;;;;;;9.77;64.25;96131.06;4900784;29;20060;-81
2022/05/30 06:41:15;;;;;;;4.75;2.72;;;;;;;9.82;63.95;96126.94;4900673;29;20071;-81
2022/05/30 06:43:43;;;;;;;5.18;2.80;;;;;;;9.89;64.51;96127.78;4900930;29;20520;-81
2022/05/30 06:46:12;;;;;;;6.65;3.17;;;;;;;9.98;64.79;96125.84;4900279;29;20509;-81
2022/05/30 06:48:41;;;;;;;6.55;3.17;;;;;;;10.07;65.04;96135.13;4900967;29;20052;-81
2022/05/30 06:51:11;;;;;;;5.88;3.13;;;;;;;10.17;65.70;96139.22;4901193;29;20059;-81
2022/05/30 06:53:41;;;;;;;5.13;3.13;;;;;;;10.24;64.75;96134.84;4902525;29;20402;-82
2022/05/30 06:56:14;;;;;;;6.03;2.70;;;;;;;10.31;64.60;96133.91;4903313;29;20487;-82
2022/05/30 06:58:44;;;;;;;3.90;2.03;;;;;;;10.40;64.26;96128.53;4905237;29;20139;-81
2022/05/30 07:01:12;;;;;;;4.70;2.40;;;;;;;10.49;64.06;96127.38;4904099;29;20076;-82
2022/05/30 07:03:41;;;;;;;7.35;2.63;;;;;;;10.57;63.54;96129.84;4903419;29;20051;-81
2022/05/30 07:06:11;;;;;;;2.80;2.00;;;;;;;10.65;63.78;96134.91;4903517;29;20067;-81
2022/05/30 07:08:43;;;;;;;5.32;2.35;;;;;;;10.75;63.15;96128.50;4904714;29;20525;-82
2022/05/30 07:11:11;;;;;;;4.82;2.72;;;;;;;10.84;62.84;96135.16;4905409;29;20052;-81
2022/05/30 07:13:40;;;;;;;2.83;2.15;;;;;;;10.94;62.06;96130.41;4903345;29;20079;-81
2022/05/30 07:16:09;;;;;;;4.70;1.70;;;;;;;11.04;61.02;96146.50;4903930;29;20048;-82
2022/05/30 07:18:37;;;;;;;2.50;1.73;;;;;;;11.13;61.42;96140.13;4903964;29;20049;-81
2022/05/30 07:21:07;;;;;;;4.88;2.05;;;;;;;11.24;61.75;96145.75;4883511;29;20532;-81
2022/05/30 07:23:37;;;;;;;3.05;2.10;;;;;;;11.33;62.07;96149.81;4895696;29;20589;-81
2022/05/30 07:26:10;;;;;;;1.95;1.50;;;;;;;11.41;60.90;96147.00;4897718;29;20060;-81
2022/05/30 07:28:39;;;;;;;2.08;1.70;;;;;;;11.51;60.85;96151.84;4910003;29;20111;-81
2022/05/30 07:31:09;;;;;;;3.40;2.25;;;;;;;11.58;59.13;96146.63;4905582;29;20135;-81
2022/05/30 07:33:39;;;;;;;5.05;2.35;;;;;;;11.67;58.27;96150.66;4900218;29;20048;-81
2022/05/30 07:36:09;;;;;;;3.30;2.30;;;;;;;11.76;59.09;96146.84;4902444;29;20060;-81
2022/05/30 07:38:38;;;;;;;2.42;2.20;;;;;;;11.87;59.00;96142.81;4900711;29;20316;-81
2022/05/30 07:41:07;;;;;;;6.15;2.88;;;;;;;11.97;58.97;96140.66;4901206;29;20044;-81
2022/05/30 07:43:35;;;;;;;4.15;2.42;;;;;;;12.08;58.89;96147.09;4905270;29;20056;-81
2022/05/30 07:46:03;;;;;;;3.75;2.22;;;;;;;12.18;58.67;96147.50;4900273;29;20111;-81
2022/05/30 07:48:32;;;;;;;5.80;2.08;;;;;;;12.27;58.37;96148.88;4901823;29;20071;-81
2022/05/30 07:51:01;;;;;;;5.80;2.10;;;;;;;12.36;57.86;96149.47;4903758;29;20050;-81
2022/05/30 07:53:29;;;;;;;3.75;1.90;;;;;;;12.46;57.68;96149.03;4901171;29;20164;-81
2022/05/30 07:55:58;;;;;;;2.53;1.40;;;;;;;12.55;57.17;96150.44;4899207;29;20059;-81
2022/05/30 07:58:27;;;;;;;4.60;1.42;;;;;;;12.63;57.43;96152.84;4901531;29;20432;-82
2022/05/30 08:00:55;;;;;;;3.95;2.08;;;;;;;12.69;56.62;96149.41;4900742;29;20052;-81
2022/05/30 08:03:25;;;;;;;2.90;1.90;;;;;;;12.74;56.93;96146.97;4903930;29;20052;-81
2022/05/30 08:06:03;;;;;;;3.83;1.67;;;;;;;12.78;56.27;96145.53;4900839;29;20075;-81
2022/05/30 08:08:31;;;;;;;3.97;1.80;;;;;;;12.82;56.24;96142.53;4903769;29;20064;-81
2022/05/30 08:10:58;;;;;;;4.38;2.03;;;;;;;12.83;56.90;96144.13;4914744;29;20078;-81
2022/05/30 08:13:27;;;;;;;6.40;2.03;;;;;;;12.85;56.65;96145.50;4899830;29;20669;-81
2022/05/30 08:15:55;;;;;;;3.08;1.80;;;;;;;12.89;56.85;96151.94;4899241;29;20082;-81
2022/05/30 08:18:23;;;;;;;3.17;1.73;;;;;;;12.91;58.19;96143.91;4900197;29;20056;-81
2022/05/30 08:20:51;;;;;;;2.25;1.65;;;;;;;12.96;58.49;96144.06;4904599;29;20131;-81
2022/05/30 08:23:19;;;;;;;2.95;1.60;;;;;;;12.97;57.62;96146.47;4901654;29;20059;-81
2022/05/30 08:25:47;;;;;;;3.70;1.63;;;;;;;13.02;56.35;96147.69;4899983;29;20045;-81
2022/05/30 08:28:15;;;;;;;6.53;1.85;;;;;;;13.03;56.19;96147.47;4900526;29;20498;-81
2022/05/30 08:30:44;;;;;;;2.58;1.20;;;;;;;13.07;56.46;96147.84;4900373;29;20060;-81
2022/05/30 08:33:14;;;;;;;4.47;1.48;;;;;;;13.07;55.66;96146.03;4902607;29;20139;-81
2022/05/30 08:35:45;;;;;;;5.40;2.10;;;;;;;13.10;56.07;96153.47;4902107;29;20057;-81
2022/05/30 08:38:13;;;;;;;2.83;1.40;;;;;;;13.13;55.71;96147.81;4901601;29;20083;-81
2022/05/30 08:43:31;;;;;;;2.20;1.20;;;;;;;13.22;53.50;96153.63;4900538;29;20053;-81
2022/05/30 08:46:12;;;;;;;3.40;1.23;;;;;;;13.26;53.18;96154.00;4903350;29;20116;-82
2022/05/30 08:48:45;;;;;;;6.18;1.65;;;;;;;13.28;53.57;96152.00;4885181;29;20787;-81
2022/05/30 08:51:27;;;;;;;1.88;1.15;;;;;;;13.34;52.87;96148.56;4901006;29;20147;-81
2022/05/30 08:54:22;;;;;;;1.05;0.90;;;;;;;13.41;53.37;96159.00;4902366;29;20438;-81
2022/05/30 08:56:55;;;;;;;3.53;1.00;;;;;;;13.47;52.17;96145.88;4905209;29;20081;-81
2022/05/30 08:59:44;;;;;;;1.77;1.20;;;;;;;13.55;50.99;96156.09;4906752;29;20059;-82
2022/05/30 09:02:23;;;;;;;2.80;1.13;;;;;;;13.58;49.66;96155.69;4902264;29;20059;-81
2022/05/30 09:05:01;;;;;;;1.40;0.80;;;;;;;13.60;48.67;96156.28;4909020;29;20044;-82
2022/05/30 09:07:39;;;;;;;1.17;0.98;;;;;;;13.62;49.72;96157.88;4902271;29;20062;-82
2022/05/30 09:10:13;;;;;;;2.88;0.82;;;;;;;13.64;48.41;96158.47;4903520;29;20135;-81
2022/05/30 09:12:47;;;;;;;3.47;0.90;;;;;;;13.68;48.58;96157.03;4907548;29;20263;-82
2022/05/30 09:15:22;;;;;;;4.47;1.00;;;;;;;13.77;48.46;96155.75;4908063;29;20049;-82
2022/05/30 09:17:59;;;;;;;1.95;0.82;;;;;;;13.83;48.96;96147.03;4907980;29;20057;-82
2022/05/30 09:20:35;;;;;;;5.70;0.98;;;;;;;13.90;47.34;96154.84;4906447;29;20060;-82
2022/05/30 09:23:06;;;;;;;2.53;0.88;;;;;;;13.94;47.59;96156.81;4912004;29;20079;-81
2022/05/30 09:26:00;;;;;;;2.47;1.13;;;;;;;13.98;48.65;96152.75;4911361;29;20052;-82
2022/05/30 09:28:33;;;;;;;1.15;0.73;;;;;;;14.01;47.34;96147.09;4904794;29;20059;-82
2022/05/30 09:31:15;;;;;;;1.38;0.90;;;;;;;14.08;48.47;96149.69;4906865;29;20075;-82
2022/05/30 09:33:51;;;;;;;1.35;0.90;;;;;;;14.17;48.57;96144.97;4905213;29;20048;-82
2022/05/30 09:36:22;;;;;;;3.42;1.25;;;;;;;14.27;48.14;96141.84;4905709;29;20136;-82
2022/05/30 09:38:57;;;;;;;1.38;0.90;;;;;;;14.37;47.67;96145.56;4903930;29;20053;-81
2022/05/30 09:41:29;;;;;;;4.57;1.20;;;;;;;14.47;47.93;96145.06;4910379;29;20053;-82
2022/05/30 09:44:01;;;;;;;1.00;0.90;;;;;;;14.58;47.30;96149.66;4907775;29;20044;-82
2022/05/30 09:46:36;;;;;;;3.35;0.80;;;;;;;14.68;46.73;96138.63;4907540;29;20058;-81
2022/05/30 09:49:10;;;;;;;3.25;0.90;;;;;;;14.80;45.65;96144.75;4907481;29;20060;-81
2022/05/30 09:51:43;;;;;;;3.78;0.93;;;;;;;14.88;45.67;96143.66;4910230;29;20489;-82
2022/05/30 09:54:30;;;;;;;1.17;1.00;;;;;;;14.99;44.67;96144.75;4911102;29;20091;-82
2022/05/30 09:57:06;;;;;;;1.88;0.60;;;;;;;15.07;44.38;96139.19;4907840;29;20081;-82
2022/05/30 09:59:38;;;;;;;0.98;0.57;;;;;;;15.14;43.58;96144.38;4907697;29;20079;-81
2022/05/30 10:02:23;;;;;;;1.48;0.55;;;;;;;15.22;43.20;96144.06;4910017;29;20056;-81
2022/05/30 10:04:58;;;;;;;2.15;0.82;;;;;;;15.27;41.15;96141.56;4907994;29;20057;-82
2022/05/30 10:07:26;;;;;;;2.70;0.70;;;;;;;15.33;41.93;96151.19;4899935;29;20057;-82
2022/05/30 10:09:57;;;;;;;3.22;1.10;;;;;;;15.40;42.06;96151.09;4907415;29;20084;-82
2022/05/30 10:12:36;;;;;;;1.20;1.10;;;;;;;15.49;41.59;96152.38;4921603;29;20111;-82
2022/05/30 10:15:27;;;;;;;2.20;0.80;;;;;;;15.60;42.56;96148.97;4929357;29;20060;-81
2022/05/30 10:18:19;;;;;;;1.05;0.80;;;;;;;15.70;42.03;96147.63;4911336;29;20061;-81
2022/05/30 10:21:03;;;;;;;1.70;1.23;;;;;;;15.78;41.87;96149.97;4908722;29;20075;-82
2022/05/30 10:29:36;;;;;;;2.38;1.02;;;;;;;16.04;41.78;96149.56;4925263;29;20048;-82
2022/05/30 10:48:58;;;;;;;0.95;0.90;;;;;;;16.63;40.39;96159.31;5379451;23;20079;-79
2022/05/30 17:57:04;;;;;;;2.03;1.05;;;;;;;18.19;32.72;96245.41;4960477;23;20298;-89
2022/05/30 17:59:50;;;;;;;3.75;1.80;;;;;;;18.17;32.62;96244.00;4884585;29;20043;-79
2022/05/30 18:02:32;;;;;;;2.13;1.30;;;;;;;18.14;32.84;96247.94;4884585;29;20109;-79
2022/05/30 18:05:24;;;;;;;1.33;1.00;;;;;;;18.11;33.03;96245.78;4884356;29;20049;-80
2022/05/30 18:08:17;;;;;;;2.10;0.80;;;;;;;18.10;33.20;96250.28;4884034;29;20079;-79
2022/05/30 18:17:12;;;;;;;3.88;1.00;;;;;;;17.99;32.92;96245.81;4899038;29;20049;-79
2022/05/30 18:23:43;;;;;;;2.80;0.95;;;;;;;17.90;33.58;96255.97;4893960;29;20077;-79
2022/05/30 18:29:43;;;;;;;1.25;0.90;;;;;;;17.85;33.87;96273.56;4884200;29;20056;-79
2022/05/30 18:35:07;;;;;;;1.52;1.33;;;;;;;17.76;34.57;96267.81;5043832;23;20029;-81
2022/05/30 18:37:48;;;;;;;1.90;1.00;;;;;;;17.71;34.16;96265.91;4923986;29;20229;-79
2022/05/30 18:40:26;;;;;;;2.83;1.48;;;;;;;17.66;34.90;96273.69;4926104;29;20072;-81
2022/05/30 18:43:17;;;;;;;3.28;1.98;;;;;;;17.60;35.79;96277.28;4912822;29;20041;-79
2022/05/30 18:45:57;;;;;;;2.17;1.20;;;;;;;17.53;36.84;96281.88;4906619;29;20048;-81
2022/05/30 18:48:35;;;;;;;1.70;1.00;;;;;;;17.40;37.41;96274.22;4923338;29;20036;-79
2022/05/30 18:51:16;;;;;;;2.20;1.63;;;;;;;17.29;37.31;96276.69;4925607;29;20081;-80
2022/05/30 18:53:49;;;;;;;3.88;1.73;;;;;;;17.20;38.03;96282.53;4921976;29;20049;-79
2022/05/30 18:56:24;;;;;;;1.30;1.10;;;;;;;17.09;38.62;96281.50;4904161;29;20060;-81
2022/05/30 18:58:57;;;;;;;1.10;1.00;;;;;;;16.99;38.82;96276.00;4906231;29;20045;-80
2022/05/30 19:01:30;;;;;;;0.90;0.85;;;;;;;16.87;38.92;96276.81;4906376;29;20131;-80
2022/05/30 19:04:02;;;;;;;1.58;0.88;;;;;;;16.79;39.19;96281.59;4905801;29;20053;-80
2022/05/30 19:06:36;;;;;;;1.77;0.82;;;;;;;16.67;39.26;96285.00;4905094;29;20049;-80
2022/05/30 19:09:07;;;;;;;2.65;0.90;;;;;;;16.57;39.83;96284.75;4905594;29;20043;-81
2022/05/30 19:11:47;;;;;;;3.97;1.20;;;;;;;16.46;40.11;96275.03;4906057;29;20045;-80
2022/05/30 19:14:24;;;;;;;1.77;1.20;;;;;;;16.36;40.02;96278.22;4906239;29;20040;-80
2022/05/30 19:19:49;;;;;;;1.30;0.93;;;;;;;16.13;40.75;96280.78;4906100;29;20093;-80
2022/05/30 19:22:19;;;;;;;4.38;1.55;;;;;;;16.03;41.01;96282.16;4906315;29;20037;-79
2022/05/30 19:24:48;;;;;;;1.10;1.10;;;;;;;15.88;41.50;96286.22;4905712;29;20050;-80
2022/05/30 19:27:18;;;;;;;1.65;1.05;;;;;;;15.74;41.71;96290.81;4905836;29;20033;-80
2022/05/30 19:29:49;;;;;;;2.53;1.00;;;;;;;15.64;41.75;96288.69;4905605;29;20080;-79
2022/05/30 19:32:19;;;;;;;1.75;1.08;;;;;;;15.55;41.87;96301.34;4905756;29;20037;-80
2022/05/30 19:34:47;;;;;;;2.08;1.08;;;;;;;15.47;42.30;96295.56;4905755;29;20055;-80
2022/05/30 19:37:21;;;;;;;1.75;0.88;;;;;;;15.40;42.27;96295.66;4905621;29;20064;-80
2022/05/30 19:39:50;;;;;;;1.40;0.90;;;;;;;15.30;42.54;96305.88;4905816;29;20056;-80
2022/05/30 19:42:18;;;;;;;2.05;0.80;;;;;;;15.17;42.31;96302.34;4905821;29;20069;-80
2022/05/30 19:44:46;;;;;;;1.52;0.80;;;;;;;15.03;42.53;96301.69;4905750;29;20055;-80
2022/05/30 19:47:15;;;;;;;3.42;2.40;;;;;;;14.98;42.78;96308.63;4904912;29;20073;-80
2022/05/30 19:49:44;;;;;;;1.70;1.42;;;;;;;14.92;42.85;96309.47;4906041;29;20036;-80
2022/05/30 19:52:12;;;;;;;2.08;1.00;;;;;;;14.88;42.70;96309.09;4905693;29;20056;-79
2022/05/30 19:54:42;;;;;;;2.03;1.10;;;;;;;14.86;42.86;96312.97;4905485;29;20041;-80
2022/05/30 19:57:10;;;;;;;1.50;1.35;;;;;;;14.81;42.96;96316.22;4904716;29;20037;-80
2022/05/30 19:59:38;;;;;;;1.85;1.15;;;;;;;14.73;42.96;96322.53;4905429;29;20033;-80
2022/05/30 20:02:06;;;;;;;2.38;2.15;;;;;;;14.67;43.36;96323.41;4905160;29;20073;-80
2022/05/30 20:04:34;;;;;;;1.42;1.33;;;;;;;14.63;43.57;96328.28;4904980;29;20041;-80
2022/05/30 20:07:04;;;;;;;2.30;1.75;;;;;;;14.60;43.73;96331.31;4904762;29;20049;-80
2022/05/30 20:09:32;;;;;;;2.53;1.50;;;;;;;14.56;44.04;96332.78;4905288;29;20057;-80
2022/05/30 20:12:00;;;;;;;3.88;1.27;;;;;;;14.54;44.02;96337.41;4905032;29;20056;-80
2022/05/30 20:14:28;;;;;;;1.75;1.13;;;;;;;14.48;44.34;96342.72;4906890;29;20049;-81